»·PEaware :: N298CK KBOI-KSLC

N298CK :: KBOI-KSLC

FLIGHT INFORMATION

Flight Status: Arrived
Operator: Privately registered:
United States
More flights under this callsign
Pilot: Thomas P. (26795)
Aircraft: Unknown
(LJ36)
More flights by this aircraft type
Origin: KBOI Boise Air Terminal/Gowen
United States
Destination: KSLC Salt Lake City Intl
United States
More flights between these airports :: More routes between these airports
Route: +ROARR BYI SKEES5
File this flight plan on PilotEdge
Remarks: NONE
Altitude:
(Current/Filed)
29,000ft
Speed:
(Current/Filed)
438kts
Departed: 03-May-20 02:35 PM
Arrived: 03-May-20 03:35 PM
Distance/Time
Traveled:
252nm/1:00
Distance/Time
To Go:
Arrived

Flight Plot

Page will automatically refresh every two minutes.


Map Options




Map Legend


Flown Route
Filed Route
Departure Airport
Arrival Airport
Navaid (VOR, NDB)
Fix

Horizontal Profiles

Position Reports

Time Latitude Longitude Heading Altitude Ground
Speed
03-May-20 14:05 43.562956 -116.234840 356 2874ft 0kts
03-May-20 14:06 43.562956 -116.234840 356 2874ft 0kts
03-May-20 14:07 43.562956 -116.234840 356 2874ft 0kts
03-May-20 14:08 43.562956 -116.234840 356 2874ft 0kts
03-May-20 14:09 43.562956 -116.234840 356 2874ft 0kts
03-May-20 14:10 43.562956 -116.234840 356 2874ft 0kts
03-May-20 14:11 43.562956 -116.234840 356 2874ft 0kts
03-May-20 14:12 43.562956 -116.234840 356 2874ft 0kts
03-May-20 14:13 43.562956 -116.234840 355 2874ft 0kts
03-May-20 14:14 43.562956 -116.234840 356 2874ft 0kts
03-May-20 14:15 43.562956 -116.234840 356 2874ft 0kts
03-May-20 14:16 43.562956 -116.234840 356 2874ft 0kts
03-May-20 14:17 43.562956 -116.234840 356 2874ft 0kts
03-May-20 14:18 43.562956 -116.234840 356 2874ft 0kts
03-May-20 14:19 43.562956 -116.234840 356 2874ft 0kts
03-May-20 14:20 43.562956 -116.234840 356 2874ft 0kts
03-May-20 14:21 43.562956 -116.234840 356 2874ft 0kts
03-May-20 14:22 43.562956 -116.234840 356 2874ft 0kts
03-May-20 14:23 43.562956 -116.234840 356 2874ft 0kts
03-May-20 14:24 43.562956 -116.234840 356 2874ft 0kts
03-May-20 14:25 43.562956 -116.234840 356 2874ft 0kts
03-May-20 14:26 43.562956 -116.234840 356 2874ft 0kts
03-May-20 14:27 43.563959 -116.234653 23 2874ft 7kts
03-May-20 14:28 43.565119 -116.232134 113 2874ft 15kts
03-May-20 14:29 43.563224 -116.226577 115 2874ft 11kts
03-May-20 14:30 43.561099 -116.220310 114 2874ft 22kts
03-May-20 14:31 43.558587 -116.212948 116 2874ft 18kts
03-May-20 14:32 43.557980 -116.210088 36 2874ft 5kts
03-May-20 14:33 43.558951 -116.210194 295 2874ft 0kts
03-May-20 14:34 43.571725 -116.258451 301 5640ft 209kts
03-May-20 14:35 43.600007 -116.338310 284 5944ft 232kts
03-May-20 14:36 43.627287 -116.416414 295 6059ft 223kts
03-May-20 14:37 43.652563 -116.495354 295 6052ft 224kts
03-May-20 14:38 43.650814 -116.573475 213 6008ft 232kts
03-May-20 14:39 43.589818 -116.575988 128 7385ft 256kts
03-May-20 14:40 43.561984 -116.490061 105 10526ft 255kts
03-May-20 14:41 43.540109 -116.384659 105 14051ft 295kts
03-May-20 14:42 43.513161 -116.280971 110 15927ft 276kts
03-May-20 14:43 43.488893 -116.172523 106 17742ft 327kts
03-May-20 14:44 43.460704 -116.060842 113 22378ft 306kts
03-May-20 14:45 43.434578 -115.948284 108 24220ft 340kts
03-May-20 14:46 43.406924 -115.824598 109 27133ft 336kts
03-May-20 14:47 43.375236 -115.699979 114 29015ft 356kts
03-May-20 14:48 43.339048 -115.564870 107 29293ft 396kts
03-May-20 14:49 43.307823 -115.414913 115 29217ft 414kts
03-May-20 14:50 43.252193 -115.275635 129 29207ft 416kts
03-May-20 14:51 43.187061 -115.144097 125 29238ft 422kts
03-May-20 14:52 43.130561 -115.002272 127 29275ft 423kts
03-May-20 14:53 43.066729 -114.867474 134 29178ft 420kts
03-May-20 14:54 42.995505 -114.741408 126 29179ft 425kts
03-May-20 14:55 42.938020 -114.599841 130 29163ft 420kts
03-May-20 14:56 42.871423 -114.469596 130 29168ft 417kts
03-May-20 14:57 42.810798 -114.333428 126 29190ft 420kts
03-May-20 14:58 42.746691 -114.201819 131 29109ft 417kts
03-May-20 14:59 42.680516 -114.072369 128 29093ft 419kts
03-May-20 15:00 42.620228 -113.937794 129 29170ft 415kts
03-May-20 15:01 42.548686 -113.817718 143 29224ft 403kts
03-May-20 15:02 42.466569 -113.715352 142 29148ft 407kts
03-May-20 15:03 42.389878 -113.601965 142 29197ft 406kts
03-May-20 15:04 42.304959 -113.503783 145 29216ft 403kts
03-May-20 15:05 42.231618 -113.393177 140 28323ft 380kts
03-May-20 15:06 42.157922 -113.293798 140 25501ft 376kts
03-May-20 15:07 42.084636 -113.203369 144 24102ft 336kts
03-May-20 15:08 42.018323 -113.118410 138 24171ft 336kts
03-May-20 15:09 41.950412 -113.026886 145 24223ft 353kts
03-May-20 15:10 41.878405 -112.931652 138 24116ft 376kts
03-May-20 15:11 41.796942 -112.832522 146 24253ft 404kts
03-May-20 15:12 41.721497 -112.713671 132 23697ft 431kts
03-May-20 15:13 41.638032 -112.621889 151 20933ft 362kts
03-May-20 15:14 41.571977 -112.531267 144 19065ft 323kts
03-May-20 15:15 41.499074 -112.457642 152 19066ft 338kts
03-May-20 15:16 41.429205 -112.368906 134 19124ft 355kts
03-May-20 15:17 41.368702 -112.264626 141 18384ft 344kts
03-May-20 15:18 41.302678 -112.182214 133 14030ft 321kts
03-May-20 15:19 41.245968 -112.096823 131 13107ft 322kts
03-May-20 15:20 41.186448 -112.022561 166 10766ft 305kts
03-May-20 15:21 41.112094 -112.006850 176 10883ft 243kts
03-May-20 15:22 41.039153 -111.994462 175 11143ft 273kts
03-May-20 15:23 40.958981 -111.983533 175 11117ft 278kts
03-May-20 15:24 40.885273 -111.975655 163 10996ft 249kts
03-May-20 15:25 40.857753 -111.915712 32 9769ft 240kts
03-May-20 15:27 40.923496 -111.922300 345 9072ft 248kts
03-May-20 15:28 40.992986 -111.938717 344 9211ft 259kts
03-May-20 15:29 41.020296 -112.017328 244 8877ft 278kts
03-May-20 15:30 40.961339 -111.998777 128 7994ft 246kts
03-May-20 15:31 40.893145 -111.986985 176 6341ft 255kts
03-May-20 15:32 40.826052 -111.978778 184 4761ft 225kts
03-May-20 15:33 40.771403 -111.983925 173 4746ft 169kts
03-May-20 15:34 40.765256 -111.962040 355 4445ft 142kts
03-May-20 15:35 40.781319 -111.962088 351 4230ft 5kts

Navigation Log

Ident Type
Flight plan parsing failed, navigation log unavailable